createdAt,value
2023-02-01T00:00:07.733Z,4.79
2023-02-01T00:02:34.428Z,4.82
2023-02-01T00:05:01.104Z,4.84
2023-02-01T00:07:27.663Z,4.87
2023-02-01T00:09:54.281Z,4.87
2023-02-01T00:12:20.874Z,4.86
2023-02-01T00:14:47.533Z,4.86
2023-02-01T00:17:15.535Z,4.85
2023-02-01T00:19:42.166Z,4.86
2023-02-01T00:22:08.769Z,4.86
2023-02-01T00:24:35.358Z,4.84
2023-02-01T00:27:01.971Z,4.81
2023-02-01T00:29:28.672Z,4.78
2023-02-01T00:31:55.351Z,4.76
2023-02-01T00:34:24.265Z,4.72
2023-02-01T00:36:50.924Z,4.69
2023-02-01T00:39:17.843Z,4.66
2023-02-01T00:41:45.018Z,4.63
2023-02-01T00:44:11.627Z,4.60
2023-02-01T00:46:38.425Z,4.57
2023-02-01T00:49:05.159Z,4.52
2023-02-01T00:51:33.148Z,4.50
2023-02-01T00:53:59.740Z,4.47
2023-02-01T00:56:26.465Z,4.43
2023-02-01T00:58:53.087Z,4.42
2023-02-01T01:01:22.236Z,4.40
2023-02-01T01:03:51.081Z,4.38
2023-02-01T01:06:20.387Z,4.37
2023-02-01T01:08:48.626Z,4.36
2023-02-01T01:11:18.002Z,4.37
2023-02-01T01:13:47.238Z,4.36
2023-02-01T01:16:14.119Z,4.36
2023-02-01T01:18:41.205Z,4.36
2023-02-01T01:21:09.469Z,4.38
2023-02-01T01:23:36.974Z,4.39
2023-02-01T01:26:08.491Z,4.40
2023-02-01T01:28:35.384Z,4.40
2023-02-01T01:31:02.450Z,4.39
2023-02-01T01:33:29.125Z,4.40
2023-02-01T01:35:55.924Z,4.41
2023-02-01T01:38:22.556Z,4.42
2023-02-01T01:40:49.467Z,4.44
2023-02-01T01:43:20.966Z,4.44
2023-02-01T01:45:47.631Z,4.44
2023-02-01T01:48:18.744Z,4.44
2023-02-01T01:50:49.667Z,4.45
2023-02-01T01:53:21.220Z,4.46
2023-02-01T01:55:48.682Z,4.45
2023-02-01T01:58:19.915Z,4.44
2023-02-01T02:00:47.184Z,4.42
2023-02-01T02:03:18.866Z,4.45
2023-02-01T02:05:47.035Z,4.45
2023-02-01T02:08:13.999Z,4.47
2023-02-01T02:10:40.881Z,4.48
2023-02-01T02:13:07.645Z,4.49
2023-02-01T02:15:38.994Z,4.50
2023-02-01T02:18:11.929Z,4.50
2023-02-01T02:20:58.930Z,4.52
2023-02-01T02:23:54.978Z,4.53
2023-02-01T02:26:35.413Z,4.53
2023-02-01T02:29:41.230Z,4.53
2023-02-01T02:32:41.048Z,4.55
2023-02-01T02:35:19.887Z,4.57
2023-02-01T02:37:54.697Z,4.59
2023-02-01T02:40:31.708Z,4.57
2023-02-01T02:43:08.895Z,4.57
2023-02-01T02:45:41.276Z,4.57
2023-02-01T02:48:18.494Z,4.57
2023-02-01T02:50:50.980Z,4.57
2023-02-01T02:53:22.719Z,4.58
2023-02-01T02:55:51.607Z,4.60
2023-02-01T02:58:19.316Z,4.62
2023-02-01T03:00:47.068Z,4.62
2023-02-01T03:03:14.148Z,4.64
2023-02-01T03:05:44.193Z,4.65
2023-02-01T03:08:14.657Z,4.67
2023-02-01T03:10:52.256Z,4.67
2023-02-01T03:13:28.656Z,4.68
2023-02-01T03:16:02.164Z,4.69
2023-02-01T03:18:36.216Z,4.69
2023-02-01T03:21:07.509Z,4.69
2023-02-01T03:23:37.754Z,4.68
2023-02-01T03:26:06.929Z,4.67
2023-02-01T03:28:35.735Z,4.67
2023-02-01T03:31:03.524Z,4.67
2023-02-01T03:33:31.362Z,4.68
2023-02-01T03:36:16.250Z,4.68
2023-02-01T03:38:51.408Z,4.70
2023-02-01T03:41:22.815Z,4.71
2023-02-01T03:43:56.736Z,4.73
2023-02-01T03:46:31.420Z,4.73
2023-02-01T03:48:58.322Z,4.75
2023-02-01T03:51:26.107Z,4.76
2023-02-01T03:53:56.154Z,4.78
2023-02-01T03:56:25.792Z,4.78
2023-02-01T03:58:52.447Z,4.79
2023-02-01T04:01:19.077Z,4.81
2023-02-01T04:03:45.806Z,4.82
2023-02-01T04:06:12.708Z,4.84
2023-02-01T04:08:39.362Z,4.86
2023-02-01T04:11:07.517Z,4.88
2023-02-01T04:13:34.181Z,4.90
2023-02-01T04:16:00.792Z,4.92
2023-02-01T04:18:27.750Z,4.95
2023-02-01T04:20:54.328Z,4.97
2023-02-01T04:23:20.919Z,4.99
2023-02-01T04:25:47.552Z,5.02
2023-02-01T04:28:15.551Z,5.04
2023-02-01T04:30:42.184Z,5.06
2023-02-01T04:33:09.123Z,5.07
2023-02-01T04:35:35.738Z,5.09
2023-02-01T04:38:02.353Z,5.12
2023-02-01T04:40:30.113Z,5.14
2023-02-01T04:42:56.870Z,5.15
2023-02-01T04:45:24.960Z,5.18
2023-02-01T04:47:51.589Z,5.19
2023-02-01T04:50:18.560Z,5.20
2023-02-01T04:52:45.150Z,5.23
2023-02-01T04:55:12.481Z,5.24
2023-02-01T04:57:39.285Z,5.25
2023-02-01T05:00:08.906Z,5.27
2023-02-01T05:02:36.938Z,5.28
2023-02-01T05:05:04.086Z,5.29
2023-02-01T05:07:30.686Z,5.32
2023-02-01T05:09:57.351Z,5.33
2023-02-01T05:12:23.981Z,5.33
2023-02-01T05:14:50.806Z,5.34
2023-02-01T05:17:17.495Z,5.36
2023-02-01T05:19:45.500Z,5.36
2023-02-01T05:22:12.045Z,5.37
2023-02-01T05:24:38.653Z,5.39
2023-02-01T05:27:05.397Z,5.38
2023-02-01T05:29:32.051Z,5.40
2023-02-01T05:32:05.212Z,5.40
2023-02-01T05:34:38.444Z,5.40
2023-02-01T05:37:06.498Z,5.42
2023-02-01T05:39:33.296Z,5.42
2023-02-01T05:41:59.901Z,5.43
2023-02-01T05:44:26.519Z,5.43
2023-02-01T05:46:53.210Z,5.44
2023-02-01T05:49:19.891Z,5.45
2023-02-01T05:51:46.961Z,5.44
2023-02-01T05:54:14.993Z,5.45
2023-02-01T05:56:41.610Z,5.45
2023-02-01T05:59:08.193Z,5.45
2023-02-01T06:01:34.850Z,5.46
2023-02-01T06:04:01.482Z,5.46
2023-02-01T06:06:28.417Z,5.45
2023-02-01T06:08:55.189Z,5.44
2023-02-01T06:11:32.169Z,5.43
2023-02-01T06:13:59.678Z,5.44
2023-02-01T06:16:26.684Z,5.44
2023-02-01T06:18:53.374Z,5.44
2023-02-01T06:21:20.275Z,5.43
2023-02-01T06:23:47.077Z,5.42
2023-02-01T06:26:13.803Z,5.42
2023-02-01T06:28:41.826Z,5.41
2023-02-01T06:31:08.813Z,5.41
2023-02-01T06:33:35.798Z,5.41
2023-02-01T06:36:05.634Z,5.41
2023-02-01T06:38:32.856Z,5.39
2023-02-01T06:40:59.671Z,5.39
2023-02-01T06:43:27.531Z,5.38
2023-02-01T06:46:01.207Z,5.37
2023-02-01T06:48:27.891Z,5.38
2023-02-01T06:50:54.540Z,5.38
2023-02-01T06:53:21.382Z,5.37
2023-02-01T06:55:55.215Z,5.37
2023-02-01T06:58:22.033Z,5.37
2023-02-01T07:00:48.938Z,5.38
2023-02-01T07:03:17.271Z,5.37
2023-02-01T07:05:43.891Z,5.37
2023-02-01T07:08:10.570Z,5.36
2023-02-01T07:10:37.895Z,5.36
2023-02-01T07:13:05.093Z,5.35
2023-02-01T07:15:31.844Z,5.35
2023-02-01T07:17:58.589Z,5.34
2023-02-01T07:20:26.788Z,5.34
2023-02-01T07:22:56.251Z,5.34
2023-02-01T07:25:22.896Z,5.34
2023-02-01T07:27:49.620Z,5.34
2023-02-01T07:30:16.500Z,5.33
2023-02-01T07:32:43.378Z,5.32
2023-02-01T07:35:10.064Z,5.27
2023-02-01T07:37:38.103Z,5.27
2023-02-01T07:40:05.879Z,5.22
2023-02-01T07:42:32.644Z,5.19
2023-02-01T07:45:05.343Z,5.18
2023-02-01T07:47:41.585Z,5.14
2023-02-01T07:50:09.140Z,5.13
2023-02-01T07:52:35.763Z,5.10
2023-02-01T07:55:04.346Z,5.06
2023-02-01T07:57:30.953Z,5.04
2023-02-01T07:59:57.570Z,5.01
2023-02-01T08:02:24.236Z,4.96
2023-02-01T08:04:50.811Z,4.95
2023-02-01T08:07:17.422Z,4.95
2023-02-01T08:09:44.229Z,4.93
2023-02-01T08:12:12.288Z,4.90
2023-02-01T08:14:38.944Z,4.89
2023-02-01T08:17:05.572Z,4.85
2023-02-01T08:19:32.233Z,4.84
2023-02-01T08:21:58.808Z,4.83
2023-02-01T08:24:25.599Z,4.83
2023-02-01T08:26:52.205Z,4.83
2023-02-01T08:29:20.243Z,4.82
2023-02-01T08:31:47.047Z,4.82
2023-02-01T08:34:14.284Z,4.81
2023-02-01T08:36:40.963Z,4.81
2023-02-01T08:39:07.887Z,4.80
2023-02-01T08:41:34.533Z,4.79
2023-02-01T08:44:01.190Z,4.76
2023-02-01T08:46:29.251Z,4.75
2023-02-01T08:48:56.070Z,4.74
2023-02-01T08:51:24.067Z,4.74
2023-02-01T08:53:51.766Z,4.73
2023-02-01T08:56:19.651Z,4.73
2023-02-01T08:58:46.288Z,4.74
2023-02-01T09:01:15.519Z,4.74
2023-02-01T09:03:43.820Z,4.78
2023-02-01T09:06:12.777Z,4.82
2023-02-01T09:08:40.275Z,4.87
2023-02-01T09:11:11.206Z,4.91
2023-02-01T09:13:37.853Z,4.94
2023-02-01T09:16:05.559Z,4.95
2023-02-01T09:18:32.319Z,4.96
2023-02-01T09:21:00.278Z,4.97
2023-02-01T09:23:27.134Z,4.99
2023-02-01T09:25:54.000Z,5.03
2023-02-01T09:28:20.835Z,5.03
2023-02-01T09:30:47.649Z,5.04
2023-02-01T09:33:14.329Z,5.04
2023-02-01T09:35:40.973Z,5.06
2023-02-01T09:38:08.997Z,5.09
2023-02-01T09:40:36.510Z,5.11
2023-02-01T09:43:21.846Z,5.13
2023-02-01T09:46:01.044Z,5.13
2023-02-01T09:48:33.165Z,5.12
2023-02-01T09:51:04.447Z,5.12
2023-02-01T09:53:35.871Z,5.10
2023-02-01T09:56:07.388Z,5.10
2023-02-01T09:58:38.805Z,5.10
2023-02-01T10:01:14.877Z,5.13
2023-02-01T10:03:41.622Z,5.15
2023-02-01T10:06:37.116Z,5.18
2023-02-01T10:09:21.727Z,5.21
2023-02-01T10:12:05.353Z,5.22
2023-02-01T10:14:38.845Z,5.21
2023-02-01T10:17:17.908Z,5.22
2023-02-01T10:19:52.207Z,5.24
2023-02-01T10:22:51.842Z,5.28
2023-02-01T10:25:27.091Z,5.31
2023-02-01T10:27:54.637Z,5.30
2023-02-01T10:30:24.927Z,5.29
2023-02-01T10:32:56.687Z,5.28
2023-02-01T10:35:28.270Z,5.25
2023-02-01T10:37:55.449Z,5.23
2023-02-01T10:40:26.321Z,5.23
2023-02-01T10:42:55.060Z,5.24
2023-02-01T10:45:24.977Z,5.24
2023-02-01T10:47:53.961Z,5.24
2023-02-01T10:50:33.925Z,5.27
2023-02-01T10:53:05.973Z,5.30
2023-02-01T10:55:42.053Z,5.36
2023-02-01T10:58:16.150Z,5.42
2023-02-01T11:00:46.550Z,5.50
2023-02-01T11:03:35.077Z,5.55
2023-02-01T11:06:03.612Z,5.61
2023-02-01T11:08:30.830Z,5.69
2023-02-01T11:11:04.138Z,5.76
2023-02-01T11:13:33.142Z,5.82
2023-02-01T11:16:02.540Z,5.90
2023-02-01T11:18:30.829Z,5.99
2023-02-01T11:20:59.316Z,6.08
2023-02-01T11:23:27.853Z,6.18
2023-02-01T11:25:57.058Z,6.26
2023-02-01T11:28:28.314Z,6.31
2023-02-01T11:30:57.869Z,6.33
2023-02-01T11:33:28.027Z,6.37
2023-02-01T11:35:54.708Z,6.43
2023-02-01T11:38:27.317Z,6.49
2023-02-01T11:40:53.950Z,6.54
2023-02-01T11:43:26.858Z,6.59
2023-02-01T11:45:58.950Z,6.65
2023-02-01T11:48:27.554Z,6.72
2023-02-01T11:51:08.878Z,6.79
2023-02-01T11:53:58.156Z,6.88
2023-02-01T11:56:33.524Z,6.94
2023-02-01T11:59:28.097Z,6.99
2023-02-01T12:02:10.278Z,7.05
2023-02-01T12:05:08.965Z,7.12
2023-02-01T12:07:53.966Z,7.16
2023-02-01T12:10:33.959Z,7.19
2023-02-01T12:13:10.401Z,7.18
2023-02-01T12:15:55.348Z,7.14
2023-02-01T12:19:02.608Z,7.10
2023-02-01T12:21:43.380Z,7.08
2023-02-01T12:24:32.049Z,7.05
2023-02-01T12:27:11.354Z,7.04
2023-02-01T12:29:56.027Z,7.07
2023-02-01T12:32:39.796Z,7.08
2023-02-01T12:35:14.076Z,7.10
2023-02-01T12:37:56.594Z,7.13
2023-02-01T12:40:37.917Z,7.14
2023-02-01T12:43:12.074Z,7.17
2023-02-01T12:45:43.266Z,7.18
2023-02-01T12:48:30.401Z,7.20
2023-02-01T12:51:00.374Z,7.22
2023-02-01T12:53:34.999Z,7.20
2023-02-01T12:56:04.908Z,7.18
2023-02-01T12:58:39.828Z,7.17
2023-02-01T13:01:10.146Z,7.16
2023-02-01T13:03:43.816Z,7.15
2023-02-01T13:06:14.826Z,7.15
2023-02-01T13:08:47.294Z,7.15
2023-02-01T13:11:20.238Z,7.12
2023-02-01T13:13:55.794Z,7.09
2023-02-01T13:28:07.949Z,7.04
2023-02-01T13:30:50.828Z,7.05
2023-02-01T13:33:54.446Z,7.07
2023-02-01T13:36:46.609Z,7.09
2023-02-01T13:39:44.945Z,7.12
2023-02-01T13:42:19.318Z,7.13
2023-02-01T13:44:49.609Z,7.13
2023-02-01T14:03:09.661Z,6.93
2023-02-01T14:06:02.287Z,6.87
2023-02-01T14:14:42.672Z,6.78
2023-02-01T14:17:36.749Z,6.77
2023-02-01T14:20:46.273Z,6.74
2023-02-01T14:32:19.366Z,6.74
2023-02-01T14:34:52.885Z,6.74
2023-02-01T14:37:28.979Z,6.75
2023-02-01T14:39:59.028Z,6.75
2023-02-01T14:42:30.576Z,6.75
2023-02-01T14:45:35.665Z,6.74
2023-02-01T14:48:39.581Z,6.73
2023-02-01T14:51:07.475Z,6.71
2023-02-01T14:53:35.355Z,6.68
2023-02-01T14:56:08.261Z,6.63
2023-02-01T14:58:42.532Z,6.54
2023-02-01T15:01:19.687Z,6.47
2023-02-01T15:03:55.911Z,6.41
2023-02-01T15:06:31.123Z,6.33
2023-02-01T15:09:01.258Z,6.18
2023-02-01T15:11:28.526Z,6.10
2023-02-01T15:13:57.211Z,6.03
2023-02-01T15:16:25.631Z,5.95
2023-02-01T15:19:09.740Z,5.89
2023-02-01T15:21:48.278Z,5.83
2023-02-01T15:24:20.653Z,5.73
2023-02-01T15:26:47.564Z,5.62
2023-02-01T15:29:16.662Z,5.53
2023-02-01T15:31:46.159Z,5.46
2023-02-01T15:34:13.510Z,5.40
2023-02-01T15:36:43.845Z,5.35
2023-02-01T15:39:21.053Z,5.30
2023-02-01T15:41:49.874Z,5.24
2023-02-01T15:44:28.862Z,5.16
2023-02-01T15:46:55.952Z,5.08
2023-02-01T15:49:27.343Z,4.98
2023-02-01T15:51:55.706Z,4.87
2023-02-01T15:54:27.675Z,4.77
2023-02-01T15:56:56.756Z,4.62
2023-02-01T15:59:30.218Z,4.43
2023-02-01T16:01:57.039Z,4.30
2023-02-01T16:04:25.730Z,4.19
2023-02-01T16:06:54.606Z,4.07
2023-02-01T16:09:22.990Z,3.97
2023-02-01T16:11:55.185Z,3.89
2023-02-01T16:14:22.229Z,3.83
2023-02-01T16:16:51.873Z,3.79
2023-02-01T16:19:18.969Z,3.79
2023-02-01T16:21:46.167Z,3.76
2023-02-01T16:24:13.071Z,3.74
2023-02-01T16:26:39.815Z,3.72
2023-02-01T16:29:06.897Z,3.71
2023-02-01T16:31:36.727Z,3.70
2023-02-01T16:34:05.573Z,3.68
2023-02-01T16:36:32.416Z,3.67
2023-02-01T16:38:59.205Z,3.69
2023-02-01T16:41:25.943Z,3.69
2023-02-01T16:43:54.275Z,3.70
2023-02-01T16:46:23.586Z,3.71
2023-02-01T16:48:54.817Z,3.73
2023-02-01T16:51:24.343Z,3.75
2023-02-01T16:53:54.571Z,3.74
2023-02-01T16:56:24.070Z,3.76
2023-02-01T16:58:50.981Z,3.77
2023-02-01T17:01:19.704Z,3.78
2023-02-01T17:03:47.015Z,3.79
2023-02-01T17:06:16.467Z,3.82
2023-02-01T17:08:48.583Z,3.83
2023-02-01T17:11:15.247Z,3.86
2023-02-01T17:13:42.953Z,3.88
2023-02-01T17:16:23.331Z,3.91
2023-02-01T17:18:56.686Z,3.94
2023-02-01T17:21:23.345Z,3.95
2023-02-01T17:23:51.607Z,3.99
2023-02-01T17:26:18.275Z,4.02
2023-02-01T17:28:45.016Z,4.03
2023-02-01T17:31:14.528Z,4.06
2023-02-01T17:33:41.496Z,4.08
2023-02-01T17:36:12.923Z,4.10
2023-02-01T17:38:39.871Z,4.11
2023-02-01T17:41:10.627Z,4.14
2023-02-01T17:43:37.548Z,4.15
2023-02-01T17:46:07.204Z,4.16
2023-02-01T17:48:33.851Z,4.18
2023-02-01T17:51:01.347Z,4.19
2023-02-01T17:53:29.463Z,4.20
2023-02-01T17:55:56.790Z,4.22
2023-02-01T17:58:25.355Z,4.24
2023-02-01T18:00:52.563Z,4.25
2023-02-01T18:03:23.133Z,4.28
2023-02-01T18:05:50.436Z,4.32
2023-02-01T18:08:17.596Z,4.32
2023-02-01T18:10:44.538Z,4.34
2023-02-01T18:13:12.243Z,4.36
2023-02-01T18:15:40.356Z,4.38
2023-02-01T18:18:07.118Z,4.39
2023-02-01T18:20:33.973Z,4.41
2023-02-01T18:23:01.254Z,4.43
2023-02-01T18:25:29.315Z,4.44
2023-02-01T18:27:57.053Z,4.46
2023-02-01T18:30:25.121Z,4.45
2023-02-01T18:32:53.256Z,4.48
2023-02-01T18:35:22.091Z,4.49
2023-02-01T18:37:50.178Z,4.51
2023-02-01T18:40:19.487Z,4.52
2023-02-01T18:42:46.529Z,4.53
2023-02-01T18:45:22.479Z,4.54
2023-02-01T18:47:49.734Z,4.54
2023-02-01T18:50:18.892Z,4.55
2023-02-01T18:52:46.081Z,4.57
2023-02-01T18:55:12.981Z,4.57
2023-02-01T18:57:40.035Z,4.57
2023-02-01T19:00:09.668Z,4.57
2023-02-01T19:02:36.396Z,4.59
2023-02-01T19:05:03.456Z,4.59
2023-02-01T19:07:31.439Z,4.60
2023-02-01T19:09:58.305Z,4.60
2023-02-01T19:12:25.046Z,4.62
2023-02-01T19:14:51.624Z,4.61
2023-02-01T19:17:18.280Z,4.63
2023-02-01T19:19:44.964Z,4.64
2023-02-01T19:22:11.933Z,4.66
2023-02-01T19:24:40.535Z,4.67
2023-02-01T19:27:07.368Z,4.66
2023-02-01T19:29:34.043Z,4.67
2023-02-01T19:32:00.739Z,4.67
2023-02-01T19:34:27.542Z,4.68
2023-02-01T19:36:54.137Z,4.68
2023-02-01T19:39:20.881Z,4.68
2023-02-01T19:41:48.979Z,4.67
2023-02-01T19:44:15.657Z,4.67
2023-02-01T19:46:42.325Z,4.69
2023-02-01T19:49:09.267Z,4.68
2023-02-01T19:51:36.079Z,4.67
2023-02-01T19:54:02.768Z,4.66
2023-02-01T19:56:29.488Z,4.64
2023-02-01T19:58:57.512Z,4.63
2023-02-01T20:01:23.405Z,4.62
2023-02-01T20:03:50.133Z,4.59
2023-02-01T20:06:18.730Z,4.57
2023-02-01T20:08:47.738Z,4.56
2023-02-01T20:11:14.660Z,4.55
2023-02-01T20:13:41.232Z,4.55
2023-02-01T20:16:09.283Z,4.54
2023-02-01T20:18:36.174Z,4.53
2023-02-01T20:21:03.461Z,4.53
2023-02-01T20:23:30.128Z,4.52
2023-02-01T20:26:01.834Z,4.51
2023-02-01T20:28:28.503Z,4.53
2023-02-01T20:30:55.098Z,4.52
2023-02-01T20:33:23.222Z,4.52
2023-02-01T20:35:49.840Z,4.51
2023-02-01T20:38:16.474Z,4.49
2023-02-01T20:40:43.237Z,4.49
2023-02-01T20:43:09.938Z,4.48
2023-02-01T20:45:39.492Z,4.48
2023-02-01T20:48:06.385Z,4.46
2023-02-01T20:50:35.153Z,4.44
2023-02-01T20:53:01.744Z,4.42
2023-02-01T20:55:28.523Z,4.40
2023-02-01T20:57:55.133Z,4.38
2023-02-01T21:00:22.012Z,4.36
2023-02-01T21:02:48.823Z,4.34
2023-02-01T21:05:15.961Z,4.33
2023-02-01T21:07:44.040Z,4.30
2023-02-01T21:10:11.390Z,4.28
2023-02-01T21:12:38.389Z,4.26
2023-02-01T21:15:06.164Z,4.23
2023-02-01T21:17:32.979Z,4.21
2023-02-01T21:19:59.784Z,4.19
2023-02-01T21:22:26.579Z,4.17
2023-02-01T21:24:54.646Z,4.14
2023-02-01T21:27:21.320Z,4.12
2023-02-01T21:29:47.917Z,4.10
2023-02-01T21:32:14.597Z,4.08
2023-02-01T21:34:41.249Z,4.08
2023-02-01T21:37:08.701Z,4.08
2023-02-01T21:39:35.339Z,4.08
2023-02-01T21:42:03.447Z,4.07
2023-02-01T21:44:30.184Z,4.07
2023-02-01T21:46:56.732Z,4.06
2023-02-01T21:49:24.135Z,4.06
2023-02-01T21:51:50.695Z,4.07
2023-02-01T21:54:17.501Z,4.07
2023-02-01T21:56:44.260Z,4.08
2023-02-01T21:59:12.488Z,4.09
2023-02-01T22:01:40.383Z,4.11
2023-02-01T22:04:07.247Z,4.12
2023-02-01T22:06:36.123Z,4.14
2023-02-01T22:09:04.093Z,4.14
2023-02-01T22:11:31.424Z,4.13
2023-02-01T22:13:58.241Z,4.12
2023-02-01T22:16:26.781Z,4.12
2023-02-01T22:18:54.133Z,4.12
2023-02-01T22:21:21.541Z,4.14
2023-02-01T22:23:51.231Z,4.14
2023-02-01T22:26:17.892Z,4.16
2023-02-01T22:28:44.700Z,4.18
2023-02-01T22:31:11.438Z,4.20
2023-02-01T22:33:39.455Z,4.22
2023-02-01T22:36:07.032Z,4.21
2023-02-01T22:38:35.291Z,4.23
2023-02-01T22:41:05.039Z,4.24
2023-02-01T22:43:32.683Z,4.24
2023-02-01T22:46:00.156Z,4.27
2023-02-01T22:48:26.907Z,4.29
2023-02-01T22:50:57.665Z,4.31
2023-02-01T22:53:24.595Z,4.32
2023-02-01T22:55:51.183Z,4.31
2023-02-01T22:58:17.980Z,4.32
2023-02-01T23:00:44.989Z,4.32
2023-02-01T23:03:11.900Z,4.31
2023-02-01T23:05:38.489Z,4.32
2023-02-01T23:08:06.570Z,4.33
2023-02-01T23:10:33.331Z,4.33
2023-02-01T23:12:59.961Z,4.34
2023-02-01T23:15:26.746Z,4.36
2023-02-01T23:17:53.504Z,4.38
2023-02-01T23:20:20.329Z,4.39
2023-02-01T23:22:48.384Z,4.40
2023-02-01T23:25:17.922Z,4.40
2023-02-01T23:27:44.959Z,4.41
2023-02-01T23:30:12.422Z,4.42
2023-02-01T23:32:38.962Z,4.45
2023-02-01T23:35:06.441Z,4.46
2023-02-01T23:37:33.255Z,4.48
2023-02-01T23:39:59.865Z,4.52
2023-02-01T23:42:27.829Z,4.54
2023-02-01T23:44:54.628Z,4.57
2023-02-01T23:47:21.615Z,4.60
2023-02-01T23:49:48.264Z,4.61
2023-02-01T23:52:14.920Z,4.62
2023-02-01T23:54:41.534Z,4.64
2023-02-01T23:57:08.645Z,4.65
2023-02-01T23:59:36.627Z,4.65
